createdAt,value
2018-07-13T00:01:38.512Z,65.72
2018-07-13T00:04:09.358Z,65.33
2018-07-13T00:06:39.948Z,65.29
2018-07-13T00:09:12.432Z,66.23
2018-07-13T00:11:43.187Z,67.52
2018-07-13T00:14:17.956Z,67.90
2018-07-13T00:16:49.392Z,68.96
2018-07-13T00:19:20.683Z,69.57
2018-07-13T00:21:52.842Z,70.18
2018-07-13T00:24:23.641Z,70.34
2018-07-13T00:26:54.716Z,70.91
2018-07-13T00:29:25.643Z,70.57
2018-07-13T00:31:56.272Z,70.57
2018-07-13T00:34:26.788Z,70.88
2018-07-13T00:36:57.258Z,71.46
2018-07-13T00:39:28.065Z,71.06
2018-07-13T00:41:58.909Z,71.80
2018-07-13T00:44:30.105Z,72.02
2018-07-13T00:47:00.921Z,72.67
2018-07-13T00:49:31.704Z,72.94
2018-07-13T00:52:02.492Z,72.50
2018-07-13T00:54:33.369Z,73.25
2018-07-13T00:57:04.160Z,73.29
2018-07-13T00:59:34.931Z,73.74
2018-07-13T01:02:06.057Z,74.04
2018-07-13T01:04:36.741Z,73.84
2018-07-13T01:07:07.495Z,73.48
2018-07-13T01:09:38.137Z,72.81
2018-07-13T01:12:08.842Z,73.35
2018-07-13T01:14:39.582Z,72.64
2018-07-13T01:17:10.340Z,73.26
2018-07-13T01:19:41.308Z,73.61
2018-07-13T01:22:12.282Z,73.48
2018-07-13T01:24:42.984Z,73.80
2018-07-13T01:27:13.876Z,73.55
2018-07-13T01:29:44.438Z,73.84
2018-07-13T01:32:14.976Z,73.33
2018-07-13T01:34:46.220Z,73.58
2018-07-13T01:37:16.826Z,73.56
2018-07-13T01:39:47.471Z,73.42
2018-07-13T01:42:18.040Z,73.82
2018-07-13T01:44:48.745Z,73.39
2018-07-13T01:47:19.627Z,73.72
2018-07-13T01:49:50.428Z,73.06
2018-07-13T01:52:21.082Z,73.66
2018-07-13T01:54:51.969Z,74.24
2018-07-13T01:57:22.685Z,72.56
2018-07-13T01:59:53.508Z,73.29
2018-07-13T02:02:24.461Z,72.33
2018-07-13T02:04:55.487Z,72.92
2018-07-13T02:07:26.143Z,72.52
2018-07-13T02:09:57.368Z,72.65
2018-07-13T02:12:28.301Z,72.03
2018-07-13T02:14:58.912Z,72.89
2018-07-13T02:17:29.576Z,73.01
2018-07-13T02:20:00.299Z,72.37
2018-07-13T02:22:32.037Z,72.88
2018-07-13T02:25:03.995Z,73.84
2018-07-13T02:27:34.614Z,73.76
2018-07-13T02:30:05.446Z,74.34
2018-07-13T02:32:37.394Z,74.87
2018-07-13T02:35:08.145Z,76.06
2018-07-13T02:37:38.857Z,76.63
2018-07-13T02:40:09.629Z,76.47
2018-07-13T02:42:40.385Z,75.98
2018-07-13T02:45:11.288Z,76.07
2018-07-13T02:47:41.912Z,76.29
2018-07-13T02:50:12.545Z,76.60
2018-07-13T02:52:43.197Z,76.37
2018-07-13T02:55:14.434Z,75.85
2018-07-13T02:57:45.004Z,76.00
2018-07-13T03:00:16.373Z,76.71
2018-07-13T03:02:47.057Z,77.11
2018-07-13T03:05:17.777Z,75.88
2018-07-13T03:07:48.716Z,75.02
2018-07-13T03:10:19.351Z,75.24
2018-07-13T03:12:49.790Z,74.79
2018-07-13T03:15:20.420Z,74.59
2018-07-13T03:17:51.194Z,74.14
2018-07-13T03:20:21.723Z,73.88
2018-07-13T03:22:52.428Z,73.54
2018-07-13T03:25:23.171Z,73.08
2018-07-13T03:27:53.904Z,72.78
2018-07-13T03:30:24.564Z,71.97
2018-07-13T03:32:55.179Z,71.03
2018-07-13T03:35:25.968Z,69.83
2018-07-13T03:37:57.601Z,69.29
2018-07-13T03:40:28.212Z,68.44
2018-07-13T03:42:58.799Z,67.37
2018-07-13T03:45:29.703Z,65.71
2018-07-13T03:48:00.280Z,65.26
2018-07-13T03:50:32.157Z,64.41
2018-07-13T03:53:02.811Z,63.94
2018-07-13T03:55:33.660Z,63.93
2018-07-13T03:58:04.823Z,64.03
2018-07-13T04:00:36.487Z,62.11
2018-07-13T04:03:08.130Z,61.21
2018-07-13T04:05:38.996Z,60.75
2018-07-13T04:08:10.003Z,59.02
2018-07-13T04:10:41.126Z,57.60
2018-07-13T04:13:11.775Z,55.73
2018-07-13T04:15:42.497Z,53.47
2018-07-13T04:18:18.516Z,53.49
2018-07-13T04:20:50.819Z,52.71
2018-07-13T04:23:22.783Z,52.92
2018-07-13T04:25:54.258Z,53.04
2018-07-13T04:28:26.373Z,52.63
2018-07-13T04:30:57.289Z,50.94
2018-07-13T04:33:28.087Z,49.91
2018-07-13T04:35:58.885Z,49.84
2018-07-13T04:38:29.928Z,49.93
2018-07-13T04:41:00.859Z,50.19
2018-07-13T04:43:31.616Z,48.26
2018-07-13T04:46:02.590Z,47.21
2018-07-13T04:48:34.209Z,47.16
2018-07-13T04:51:04.558Z,47.04
2018-07-13T04:53:35.658Z,45.60
2018-07-13T04:56:06.872Z,45.80
2018-07-13T04:58:39.075Z,46.72
2018-07-13T05:01:10.253Z,45.94
2018-07-13T05:03:41.177Z,47.95
2018-07-13T05:06:12.062Z,48.93
2018-07-13T05:08:42.901Z,48.15
2018-07-13T05:11:13.756Z,46.97
2018-07-13T05:13:44.427Z,44.58
2018-07-13T05:16:15.337Z,43.16
2018-07-13T05:18:45.858Z,42.82
2018-07-13T05:21:16.571Z,41.99
2018-07-13T05:23:47.818Z,43.54
2018-07-13T05:26:18.760Z,41.29
2018-07-13T05:28:50.779Z,40.86
2018-07-13T05:31:23.312Z,39.04
2018-07-13T05:33:54.228Z,38.56
2018-07-13T05:36:25.475Z,38.54
2018-07-13T05:38:56.435Z,38.33
2018-07-13T05:41:27.404Z,37.65
2018-07-13T05:43:58.492Z,37.63
2018-07-13T05:46:29.228Z,38.30
2018-07-13T05:49:00.256Z,38.36
2018-07-13T05:51:31.265Z,36.76
2018-07-13T05:54:02.213Z,36.97
2018-07-13T05:56:32.949Z,36.41
2018-07-13T05:59:03.863Z,35.74
2018-07-13T06:01:34.555Z,34.78
2018-07-13T06:04:05.546Z,35.96
2018-07-13T06:06:36.433Z,35.75
2018-07-13T06:09:10.177Z,32.61
2018-07-13T06:11:43.252Z,31.93
2018-07-13T06:14:14.231Z,33.36
2018-07-13T06:16:45.133Z,33.25
2018-07-13T06:19:15.958Z,31.60
2018-07-13T06:21:46.615Z,33.10
2018-07-13T06:24:18.510Z,31.99
2018-07-13T06:26:49.308Z,33.23
2018-07-13T06:29:21.249Z,33.87
2018-07-13T06:31:52.407Z,32.68
2018-07-13T06:34:22.891Z,33.83
2018-07-13T06:36:54.296Z,34.70
2018-07-13T06:39:25.014Z,33.07
2018-07-13T06:41:56.983Z,32.49
2018-07-13T06:44:27.752Z,31.78
2018-07-13T06:46:59.285Z,31.79
2018-07-13T06:49:30.205Z,31.43
2018-07-13T06:52:00.981Z,31.57
2018-07-13T06:54:31.940Z,31.58
2018-07-13T06:57:03.629Z,31.87
2018-07-13T06:59:34.358Z,33.23
2018-07-13T07:02:05.118Z,34.58
2018-07-13T07:04:37.699Z,32.27
2018-07-13T07:07:12.804Z,32.68
2018-07-13T07:09:46.136Z,31.51
2018-07-13T07:13:55.955Z,31.86
2018-07-13T07:16:26.843Z,30.98
2018-07-13T07:18:57.894Z,31.20
2018-07-13T07:21:28.446Z,29.73
2018-07-13T07:23:59.274Z,28.51
2018-07-13T07:26:29.941Z,27.97
2018-07-13T07:29:00.496Z,29.02
2018-07-13T07:31:34.921Z,28.42
2018-07-13T07:34:05.377Z,29.57
2018-07-13T07:36:36.582Z,28.88
2018-07-13T07:39:11.585Z,29.71
2018-07-13T07:41:42.579Z,29.10
2018-07-13T07:44:13.309Z,29.91
2018-07-13T07:46:44.363Z,28.14
2018-07-13T07:49:15.064Z,27.78
2018-07-13T07:51:45.845Z,29.16
2018-07-13T07:54:16.495Z,29.47
2018-07-13T07:56:47.111Z,28.74
2018-07-13T07:59:17.819Z,27.89
2018-07-13T08:01:48.462Z,28.92
2018-07-13T08:04:19.794Z,28.24
2018-07-13T08:06:50.717Z,27.80
2018-07-13T08:09:21.265Z,27.61
2018-07-13T08:11:51.743Z,28.20
2018-07-13T08:14:22.315Z,26.41
2018-07-13T08:16:52.830Z,25.51
2018-07-13T08:19:24.129Z,26.46
2018-07-13T08:21:54.824Z,26.25
2018-07-13T08:24:25.741Z,26.07
2018-07-13T08:31:12.938Z,25.93
2018-07-13T08:33:44.130Z,25.12
2018-07-13T08:36:15.442Z,25.41
2018-07-13T08:38:46.429Z,26.41
2018-07-13T08:41:17.855Z,26.73
2018-07-13T08:43:48.812Z,25.98
2018-07-13T08:46:19.810Z,26.32
2018-07-13T08:48:50.279Z,25.96
2018-07-13T08:51:20.963Z,26.53
2018-07-13T08:53:51.949Z,26.50
2018-07-13T08:56:22.694Z,26.24
2018-07-13T08:58:53.275Z,25.56
2018-07-13T09:01:25.073Z,26.47
2018-07-13T09:03:56.506Z,26.21
2018-07-13T09:06:27.094Z,25.92
2018-07-13T09:08:57.543Z,25.36
2018-07-13T09:11:28.324Z,27.09
2018-07-13T09:13:59.086Z,26.08
2018-07-13T09:16:29.960Z,26.17
2018-07-13T09:19:00.616Z,26.72
2018-07-13T09:21:31.386Z,25.80
2018-07-13T09:24:03.049Z,25.65
2018-07-13T09:26:33.668Z,24.59
2018-07-13T09:29:04.397Z,25.81
2018-07-13T09:31:35.847Z,25.80
2018-07-13T09:34:07.608Z,25.82
2018-07-13T09:36:39.029Z,25.38
2018-07-13T09:39:10.421Z,24.61
2018-07-13T09:41:41.914Z,24.07
2018-07-13T09:44:12.768Z,23.53
2018-07-13T09:46:44.462Z,23.64
2018-07-13T09:49:15.083Z,23.54
2018-07-13T09:51:45.715Z,24.95
2018-07-13T09:54:16.447Z,23.75
2018-07-13T09:56:47.415Z,23.88
2018-07-13T09:59:17.865Z,21.90
2018-07-13T10:01:48.711Z,22.76
2018-07-13T10:04:19.469Z,24.89
2018-07-13T10:06:50.856Z,25.11
2018-07-13T10:09:21.714Z,23.77
2018-07-13T10:11:52.353Z,22.87
2018-07-13T10:14:23.130Z,22.64
2018-07-13T10:16:53.962Z,23.80
2018-07-13T10:19:24.657Z,24.66
2018-07-13T10:21:55.333Z,24.50
2018-07-13T10:24:27.198Z,23.05
2018-07-13T10:27:00.008Z,24.77
2018-07-13T10:29:46.480Z,24.46
2018-07-13T10:32:18.011Z,23.04
2018-07-13T10:34:49.994Z,24.20
2018-07-13T10:37:20.704Z,24.93
2018-07-13T10:39:51.344Z,23.02
2018-07-13T10:42:22.565Z,27.04
2018-07-13T10:44:53.947Z,29.22
2018-07-13T10:47:24.444Z,29.44
2018-07-13T10:49:55.896Z,29.85
2018-07-13T10:52:26.369Z,26.29
2018-07-13T10:54:56.745Z,23.48
2018-07-13T10:57:27.195Z,21.87
2018-07-13T10:59:57.562Z,21.04
2018-07-13T11:02:28.103Z,22.38
2018-07-13T11:04:58.654Z,21.64
2018-07-13T11:07:30.180Z,21.85
2018-07-13T11:10:01.192Z,22.27
2018-07-13T11:12:32.011Z,21.60
2018-07-13T11:15:02.573Z,22.43
2018-07-13T11:17:39.713Z,23.13
2018-07-13T11:20:10.402Z,21.13
2018-07-13T11:22:41.532Z,21.51
2018-07-13T11:25:12.627Z,21.62
2018-07-13T11:27:43.051Z,20.15
2018-07-13T11:30:13.473Z,21.03
2018-07-13T11:32:44.448Z,23.08
2018-07-13T11:35:15.184Z,22.89
2018-07-13T11:37:46.587Z,22.39
2018-07-13T11:40:16.958Z,23.85
2018-07-13T11:42:47.555Z,23.86
2018-07-13T11:45:18.256Z,25.91
2018-07-13T11:47:48.959Z,25.16
2018-07-13T11:50:19.709Z,24.92
2018-07-13T11:52:51.204Z,24.81
2018-07-13T11:55:21.818Z,25.01
2018-07-13T11:57:52.266Z,25.77
2018-07-13T12:00:22.866Z,26.51
2018-07-13T12:02:53.343Z,27.23
2018-07-13T12:05:24.077Z,26.67
2018-07-13T12:07:54.773Z,26.72
2018-07-13T12:10:25.400Z,27.28
2018-07-13T12:12:56.254Z,27.58
2018-07-13T12:15:26.786Z,27.13
2018-07-13T12:17:57.405Z,26.25
2018-07-13T12:20:28.034Z,26.91
2018-07-13T12:22:58.767Z,27.85
2018-07-13T12:25:29.352Z,27.35
2018-07-13T12:28:00.850Z,27.13
2018-07-13T12:30:31.425Z,26.97
2018-07-13T12:33:02.087Z,26.31
2018-07-13T12:35:32.467Z,26.16
2018-07-13T12:38:03.082Z,26.23
2018-07-13T12:40:34.031Z,25.65
2018-07-13T12:43:04.687Z,26.46
2018-07-13T12:45:35.329Z,27.11
2018-07-13T12:48:05.959Z,25.80
2018-07-13T12:50:36.598Z,25.65
2018-07-13T12:53:09.966Z,24.93
2018-07-13T12:55:40.672Z,25.67
2018-07-13T12:58:11.292Z,25.65
2018-07-13T13:00:42.388Z,25.70
2018-07-13T13:03:13.140Z,25.34
2018-07-13T13:05:44.075Z,26.26
2018-07-13T13:08:14.624Z,26.19
2018-07-13T13:10:45.556Z,26.67
2018-07-13T13:13:15.944Z,25.81
2018-07-13T13:15:46.461Z,25.13
2018-07-13T13:18:17.296Z,24.17
2018-07-13T13:20:47.873Z,25.35
2018-07-13T13:23:18.392Z,25.00
2018-07-13T13:25:49.404Z,24.79
2018-07-13T13:28:19.924Z,23.77
2018-07-13T13:30:50.495Z,25.17
2018-07-13T13:33:21.120Z,25.85
2018-07-13T13:35:51.978Z,24.56
2018-07-13T13:38:22.930Z,24.90
2018-07-13T13:40:53.515Z,25.21
2018-07-13T13:43:24.127Z,25.70
2018-07-13T13:45:54.797Z,25.41
2018-07-13T13:48:25.455Z,25.96
2018-07-13T13:50:56.331Z,25.93
2018-07-13T13:53:27.659Z,26.38
2018-07-13T13:55:58.430Z,26.39
2018-07-13T13:58:29.007Z,25.57
2018-07-13T14:00:59.562Z,28.15
2018-07-13T14:03:30.101Z,29.41
2018-07-13T14:06:00.722Z,30.22
2018-07-13T14:08:31.440Z,30.08
2018-07-13T14:11:08.246Z,30.60
2018-07-13T14:13:39.935Z,30.90
2018-07-13T14:16:14.579Z,31.17
2018-07-13T14:18:45.775Z,31.29
2018-07-13T14:21:17.473Z,30.44
2018-07-13T14:23:49.268Z,29.69
2018-07-13T14:26:20.846Z,29.50
2018-07-13T14:28:57.508Z,29.40
2018-07-13T14:31:28.336Z,28.66
2018-07-13T14:33:59.072Z,29.00
2018-07-13T14:36:29.983Z,28.77
2018-07-13T14:39:00.675Z,29.48
2018-07-13T14:41:31.843Z,29.97
2018-07-13T14:44:02.422Z,31.04
2018-07-13T14:46:33.793Z,31.05
2018-07-13T14:49:04.148Z,31.47
2018-07-13T14:51:35.692Z,31.72
2018-07-13T14:54:06.533Z,32.56
2018-07-13T14:56:36.948Z,31.67
2018-07-13T14:59:07.860Z,32.05
2018-07-13T15:01:38.480Z,31.40
2018-07-13T15:04:09.047Z,31.76
2018-07-13T15:06:39.628Z,32.08
2018-07-13T15:09:10.020Z,31.38
2018-07-13T15:11:40.536Z,31.85
2018-07-13T15:14:10.943Z,32.04
2018-07-13T15:16:41.428Z,32.19
2018-07-13T15:19:11.909Z,32.91
2018-07-13T15:21:42.301Z,33.80
2018-07-13T15:24:12.873Z,33.92
2018-07-13T15:26:43.267Z,34.02
2018-07-13T15:29:13.742Z,35.17
2018-07-13T15:31:44.601Z,35.59
2018-07-13T15:34:15.113Z,36.24
2018-07-13T15:36:45.649Z,36.88
2018-07-13T15:39:16.105Z,37.44
2018-07-13T15:41:46.583Z,37.50
2018-07-13T15:44:17.591Z,38.35
2018-07-13T15:46:48.237Z,38.91
2018-07-13T15:49:19.054Z,39.66
2018-07-13T15:51:49.899Z,41.04
2018-07-13T15:54:20.594Z,42.05
2018-07-13T15:56:51.247Z,41.85
2018-07-13T15:59:21.932Z,42.44
2018-07-13T16:01:52.371Z,41.97
2018-07-13T16:04:22.955Z,42.38
2018-07-13T16:06:53.627Z,41.83
2018-07-13T16:09:24.152Z,42.37
2018-07-13T16:11:54.720Z,42.83
2018-07-13T16:14:26.074Z,43.38
2018-07-13T16:16:56.675Z,43.77
2018-07-13T16:19:27.127Z,44.27
2018-07-13T16:21:58.680Z,43.57
2018-07-13T16:24:29.156Z,43.41
2018-07-13T16:26:59.602Z,43.81
2018-07-13T16:32:30.923Z,43.51
2018-07-13T16:35:01.255Z,43.49
2018-07-13T16:37:31.643Z,42.75
2018-07-13T16:40:02.223Z,42.94
2018-07-13T16:42:32.853Z,43.20
2018-07-13T16:45:03.333Z,42.75
2018-07-13T16:47:34.303Z,42.56
2018-07-13T16:50:05.115Z,41.93
2018-07-13T16:52:35.489Z,41.92
2018-07-13T16:55:06.508Z,41.33
2018-07-13T16:57:37.021Z,40.98
2018-07-13T17:00:09.722Z,40.55
2018-07-13T17:02:40.416Z,40.20
2018-07-13T17:05:10.961Z,40.94
2018-07-13T17:07:41.449Z,40.51
2018-07-13T17:10:12.042Z,41.01
2018-07-13T17:12:42.651Z,40.94
2018-07-13T17:15:13.244Z,41.02
2018-07-13T17:17:43.698Z,41.03
2018-07-13T17:20:14.193Z,40.50
2018-07-13T17:22:44.634Z,40.85
2018-07-13T17:25:15.240Z,40.66
2018-07-13T17:27:46.812Z,40.67
2018-07-13T17:30:17.189Z,40.10
2018-07-13T17:32:47.633Z,40.34
2018-07-13T17:35:18.549Z,40.36
2018-07-13T17:37:49.343Z,40.62
2018-07-13T17:40:20.273Z,39.90
2018-07-13T17:42:50.745Z,39.64
2018-07-13T17:45:21.228Z,40.21
2018-07-13T17:47:51.740Z,39.49
2018-07-13T17:50:22.073Z,40.06
2018-07-13T17:52:52.480Z,40.43
2018-07-13T17:55:22.999Z,40.38
2018-07-13T17:57:53.553Z,40.17
2018-07-13T18:00:24.404Z,40.38
2018-07-13T18:02:55.444Z,41.40
2018-07-13T18:05:25.824Z,41.81
2018-07-13T18:08:04.998Z,41.42
2018-07-13T18:10:36.974Z,41.72
2018-07-13T18:13:07.953Z,42.11
2018-07-13T18:15:38.964Z,41.85
2018-07-13T18:18:09.351Z,41.72
2018-07-13T18:20:40.052Z,41.99
2018-07-13T18:23:10.630Z,41.51
2018-07-13T18:25:41.127Z,41.91
2018-07-13T18:28:11.688Z,42.38
2018-07-13T18:30:42.080Z,42.14
2018-07-13T18:33:12.350Z,42.89
2018-07-13T18:35:42.795Z,43.27
2018-07-13T18:38:13.893Z,43.38
2018-07-13T18:40:44.243Z,42.79
2018-07-13T18:43:14.944Z,42.62
2018-07-13T18:45:45.907Z,42.73
2018-07-13T18:48:16.430Z,42.93
2018-07-13T18:50:46.962Z,42.45
2018-07-13T18:53:17.861Z,42.80
2018-07-13T18:55:48.341Z,43.35
2018-07-13T18:58:19.285Z,44.32
2018-07-13T19:00:49.675Z,44.91
2018-07-13T19:03:22.430Z,45.80
2018-07-13T19:05:53.590Z,46.01
2018-07-13T19:08:24.288Z,45.55
2018-07-13T19:10:54.897Z,46.53
2018-07-13T19:13:25.602Z,46.34
2018-07-13T19:15:56.705Z,45.87
2018-07-13T19:18:27.958Z,47.30
2018-07-13T19:20:58.944Z,47.19
2018-07-13T19:23:29.491Z,47.66
2018-07-13T19:25:59.930Z,46.70
2018-07-13T19:28:30.482Z,47.43
2018-07-13T19:31:00.901Z,47.64
2018-07-13T19:33:31.356Z,48.04
2018-07-13T19:36:02.287Z,48.65
2018-07-13T19:38:33.018Z,48.77
2018-07-13T19:41:03.826Z,48.83
2018-07-13T19:43:34.719Z,49.08
2018-07-13T19:46:05.455Z,49.60
2018-07-13T19:48:36.111Z,49.94
2018-07-13T19:51:06.887Z,49.85
2018-07-13T19:53:37.561Z,49.43
2018-07-13T19:56:08.318Z,49.89
2018-07-13T19:58:39.229Z,49.77
2018-07-13T20:01:10.813Z,49.95
2018-07-13T20:03:41.346Z,50.03
2018-07-13T20:06:11.847Z,50.14
2018-07-13T20:08:42.442Z,49.94
2018-07-13T20:11:12.969Z,50.36
2018-07-13T20:13:43.344Z,50.28
2018-07-13T20:16:13.828Z,50.41
2018-07-13T20:18:44.304Z,50.07
2018-07-13T20:21:14.783Z,50.20
2018-07-13T20:23:45.234Z,50.21
2018-07-13T20:26:16.083Z,50.23
2018-07-13T20:28:46.824Z,50.71
2018-07-13T20:31:17.334Z,50.40
2018-07-13T20:33:47.812Z,50.48
2018-07-13T20:36:18.374Z,51.31
2018-07-13T20:38:48.957Z,50.86
2018-07-13T20:41:19.709Z,51.16
2018-07-13T20:43:50.154Z,50.96
2018-07-13T20:46:20.620Z,51.32
2018-07-13T20:48:51.411Z,51.90
2018-07-13T20:51:21.871Z,51.90
2018-07-13T20:53:52.462Z,51.81
2018-07-13T20:56:23.269Z,52.56
2018-07-13T20:58:54.041Z,53.00
2018-07-13T21:01:24.658Z,53.88
2018-07-13T21:03:55.991Z,55.06
2018-07-13T21:06:26.501Z,55.67
2018-07-13T21:08:57.110Z,56.29
2018-07-13T21:11:27.592Z,57.44
2018-07-13T21:13:58.075Z,57.68
2018-07-13T21:16:29.341Z,57.81
2018-07-13T21:18:59.939Z,57.53
2018-07-13T21:21:30.511Z,58.48
2018-07-13T21:24:01.005Z,58.10
2018-07-13T21:26:31.478Z,58.15
2018-07-13T21:29:02.153Z,59.18
2018-07-13T21:31:32.579Z,59.52
2018-07-13T21:34:02.948Z,60.12
2018-07-13T21:36:33.513Z,60.22
2018-07-13T21:39:05.227Z,60.21
2018-07-13T21:41:35.893Z,60.32
2018-07-13T21:44:06.493Z,61.25
2018-07-13T21:46:37.003Z,61.13
2018-07-13T21:49:07.603Z,61.18
2018-07-13T21:51:38.280Z,61.20
2018-07-13T21:54:08.842Z,61.38
2018-07-13T21:56:39.393Z,61.48
2018-07-13T21:59:10.014Z,61.04
2018-07-13T22:01:41.048Z,61.11
2018-07-13T22:04:11.472Z,61.18
2018-07-13T22:06:42.362Z,61.13
2018-07-13T22:09:12.963Z,60.95
2018-07-13T22:11:43.527Z,61.00
2018-07-13T22:14:13.889Z,60.55
2018-07-13T22:16:44.680Z,60.20
2018-07-13T22:19:15.188Z,60.63
2018-07-13T22:21:45.639Z,60.56
2018-07-13T22:24:16.334Z,60.66
2018-07-13T22:26:46.851Z,60.42
2018-07-13T22:29:18.010Z,60.68
2018-07-13T22:31:48.640Z,60.26
2018-07-13T22:34:19.993Z,60.51
2018-07-13T22:36:50.890Z,60.36
2018-07-13T22:39:21.513Z,59.97
2018-07-13T22:41:52.031Z,59.83
2018-07-13T22:44:22.398Z,59.90
2018-07-13T22:46:53.128Z,59.96
2018-07-13T22:49:23.773Z,59.44
2018-07-13T22:51:54.154Z,60.04
2018-07-13T22:54:25.298Z,59.96
2018-07-13T22:56:56.245Z,59.08
2018-07-13T22:59:26.854Z,59.26
2018-07-13T23:01:57.435Z,59.77
2018-07-13T23:04:28.055Z,59.64
2018-07-13T23:06:58.427Z,59.64
2018-07-13T23:09:28.996Z,59.28
2018-07-13T23:11:59.583Z,58.93
2018-07-13T23:14:29.984Z,58.40
2018-07-13T23:17:00.481Z,58.62
2018-07-13T23:19:30.781Z,58.48
2018-07-13T23:22:01.357Z,58.18
2018-07-13T23:24:31.849Z,57.87
2018-07-13T23:27:02.447Z,57.47
2018-07-13T23:29:33.043Z,57.68
2018-07-13T23:32:03.519Z,57.99
2018-07-13T23:34:33.929Z,57.87
2018-07-13T23:37:04.511Z,58.70
2018-07-13T23:39:35.091Z,59.64
2018-07-13T23:42:05.553Z,60.31
2018-07-13T23:44:36.182Z,60.99
2018-07-13T23:47:06.772Z,61.51
2018-07-13T23:49:37.771Z,61.68
2018-07-13T23:52:08.378Z,62.23
2018-07-13T23:54:39.464Z,62.52
2018-07-13T23:57:09.912Z,62.55
2018-07-13T23:59:40.420Z,62.59
